»·PEaware :: SWA410 KABQ-KPHX

SWA410 :: KABQ-KPHX

FLIGHT INFORMATION

Flight Status: Arrived
Operator:
Southwest Airlines
More flights by this operator :: More flights under this callsign
Pilot: Ben F. (2808)
Aircraft: BOEING 737-300
(B733)
More flights by this aircraft type
Origin: KABQ Albuquerque Intl Sunport
United States
Destination: KPHX Phoenix Sky Harbor Intl
United States
More flights between these airports :: More routes between these airports
Route: LARGO2 ZUN EAGUL6
File this flight plan on PilotEdge
Remarks: PBN / A1B3B4B5D3D4 NAV / RNVD1E2A1 REG / N372SB RMK / SIMBRIEF
Altitude:
(Current/Filed)
34,000ft
Speed:
(Current/Filed)
436kts
Departed: 28-Sep-17 06:46 PM
Arrived: 28-Sep-17 07:42 PM
Distance/Time
Traveled:
284nm/0:56
Distance/Time
To Go:
Arrived

Flight Plot

Page will automatically refresh every two minutes.

Flight plan parsing failed; only flown route is shown


Map Options




Map Legend


Flown Route
Filed Route
Departure Airport
Arrival Airport
Navaid (VOR, NDB)
Fix

Horizontal Profiles

Position Reports

Time Latitude Longitude Heading Altitude Ground
Speed
28-Sep-17 18:30 35.046707 -106.615940 10 5361ft 0kts
28-Sep-17 18:31 35.046707 -106.615940 10 5361ft 0kts
28-Sep-17 18:32 35.046707 -106.615940 10 5361ft 0kts
28-Sep-17 18:33 35.046707 -106.615940 10 5361ft 0kts
28-Sep-17 18:34 35.046707 -106.615940 10 5361ft 0kts
28-Sep-17 18:35 35.046707 -106.615940 10 5361ft 0kts
28-Sep-17 18:36 35.046707 -106.615940 10 5361ft 0kts
28-Sep-17 18:37 35.046707 -106.615940 10 5361ft 0kts
28-Sep-17 18:38 35.046707 -106.615940 10 5361ft 0kts
28-Sep-17 18:39 35.046707 -106.615940 10 5361ft 0kts
28-Sep-17 18:40 35.046707 -106.615940 10 5361ft 0kts
28-Sep-17 18:41 35.046707 -106.615940 10 5361ft 0kts
28-Sep-17 18:42 35.046683 -106.615946 10 5361ft 2kts
28-Sep-17 18:43 35.046163 -106.615915 326 5361ft 2kts
28-Sep-17 18:44 35.045946 -106.615401 267 5361ft 1kts
28-Sep-17 18:45 35.045946 -106.615377 268 5361ft 0kts
28-Sep-17 18:46 35.045948 -106.615885 269 5361ft 6kts
28-Sep-17 18:47 35.045253 -106.617255 192 5361ft 0kts
28-Sep-17 18:48 35.045490 -106.617872 291 5361ft 12kts
28-Sep-17 18:49 35.045360 -106.621293 207 5361ft 6kts
28-Sep-17 18:50 35.044267 -106.607779 90 5361ft 128kts
28-Sep-17 18:51 35.043606 -106.558246 86 6949ft 155kts
28-Sep-17 18:52 35.076289 -106.543333 320 8372ft 200kts
28-Sep-17 18:53 35.114891 -106.601349 277 9637ft 259kts
28-Sep-17 18:54 35.111317 -106.699886 266 10792ft 331kts
28-Sep-17 18:55 35.105413 -106.819310 266 12556ft 369kts
28-Sep-17 18:56 35.099189 -106.944482 266 15160ft 384kts
28-Sep-17 18:57 35.092525 -107.075520 263 17575ft 397kts
28-Sep-17 18:58 35.085640 -107.208278 261 20302ft 393kts
28-Sep-17 18:59 35.078725 -107.338850 262 23062ft 381kts
28-Sep-17 19:00 35.071807 -107.466536 262 24972ft 386kts
28-Sep-17 19:01 35.064573 -107.597747 262 26584ft 395kts
28-Sep-17 19:02 35.057158 -107.729938 261 28059ft 404kts
28-Sep-17 19:03 35.049530 -107.862963 261 29960ft 397kts
28-Sep-17 19:04 35.041743 -107.994980 261 31606ft 392kts
28-Sep-17 19:05 35.034057 -108.123175 260 33046ft 387kts
28-Sep-17 19:06 35.026228 -108.251227 260 34218ft 384kts
28-Sep-17 19:07 35.017990 -108.382424 260 34300ft 389kts
28-Sep-17 19:08 35.009876 -108.509573 260 34292ft 388kts
28-Sep-17 19:09 35.002034 -108.630463 260 34287ft 389kts
28-Sep-17 19:10 34.993767 -108.757056 260 34237ft 388kts
28-Sep-17 19:11 34.985112 -108.886992 259 34239ft 388kts
28-Sep-17 19:12 34.976293 -109.016627 259 34238ft 388kts
28-Sep-17 19:13 34.967111 -109.146326 256 34236ft 386kts
28-Sep-17 19:14 34.926504 -109.263591 242 34195ft 380kts
28-Sep-17 19:15 34.885259 -109.376143 242 34147ft 380kts
28-Sep-17 19:16 34.842644 -109.492065 243 34158ft 380kts
28-Sep-17 19:17 34.800000 -109.607618 242 34157ft 380kts
28-Sep-17 19:18 34.758754 -109.719408 242 34159ft 380kts
28-Sep-17 19:19 34.715697 -109.835865 242 34158ft 380kts
28-Sep-17 19:20 34.672439 -109.952051 242 34158ft 380kts
28-Sep-17 19:21 34.629053 -110.068649 245 34174ft 387kts
28-Sep-17 19:22 34.584514 -110.187900 245 34217ft 390kts
28-Sep-17 19:23 34.539581 -110.307750 245 32641ft 391kts
28-Sep-17 19:24 34.494227 -110.428175 245 30675ft 400kts
28-Sep-17 19:25 34.447754 -110.550017 246 28802ft 398kts
28-Sep-17 19:26 34.404689 -110.663625 246 27355ft 369kts
28-Sep-17 19:27 34.362464 -110.774830 246 26176ft 367kts
28-Sep-17 19:28 34.297929 -110.868706 229 24989ft 366kts
28-Sep-17 19:29 34.230196 -110.956032 229 23792ft 349kts
28-Sep-17 19:30 34.165217 -111.039878 229 21936ft 342kts
28-Sep-17 19:31 34.102168 -111.120889 229 20555ft 334kts
28-Sep-17 19:32 34.039118 -111.201920 229 19492ft 332kts
28-Sep-17 19:33 33.976810 -111.281816 229 18014ft 329kts
28-Sep-17 19:34 33.915662 -111.360027 227 16124ft 316kts
28-Sep-17 19:35 33.857063 -111.424759 214 14412ft 306kts
28-Sep-17 19:36 33.787669 -111.484193 213 12826ft 307kts
28-Sep-17 19:37 33.719504 -111.542708 213 11059ft 299kts
28-Sep-17 19:38 33.653689 -111.599202 214 9367ft 280kts
28-Sep-17 19:39 33.595960 -111.647643 215 8810ft 246kts
28-Sep-17 19:40 33.542995 -111.693107 215 7558ft 245kts
28-Sep-17 19:41 33.488131 -111.740622 218 5784ft 245kts
28-Sep-17 19:42 33.447664 -111.803319 235 4282ft 234kts
28-Sep-17 19:43 33.428166 -111.869074 270 3434ft 209kts
28-Sep-17 19:44 33.428755 -111.930767 270 2333ft 167kts
28-Sep-17 19:45 33.428891 -111.983986 270 1434ft 153kts
28-Sep-17 19:46 33.428994 -112.020870 287 1141ft 23kts
28-Sep-17 19:47 33.429944 -112.017740 90 1141ft 18kts
28-Sep-17 19:48 33.432883 -112.013725 87 1141ft 17kts
28-Sep-17 19:49 33.432875 -112.007317 87 1141ft 21kts
28-Sep-17 19:50 33.432839 -111.999625 90 1141ft 24kts
28-Sep-17 19:51 33.433985 -111.995926 299 1141ft 6kts
28-Sep-17 19:52 33.434068 -111.996237 284 1141ft 0kts

Navigation Log

Ident Type
Flight plan parsing failed, navigation log unavailable